sensor_id;sensor_type;location;lat;lon;timestamp;P1;durP1;ratioP1;P2;durP2;ratioP2
10839;SDS011;5473;42.706;23.328;2022-12-07T00:01:50;0.50;;;0.50;;
10839;SDS011;5473;42.706;23.328;2022-12-07T00:04:17;0.60;;;0.60;;
10839;SDS011;5473;42.706;23.328;2022-12-07T00:06:46;0.60;;;0.60;;
10839;SDS011;5473;42.706;23.328;2022-12-07T00:09:17;0.60;;;0.60;;
10839;SDS011;5473;42.706;23.328;2022-12-07T00:11:44;0.50;;;0.50;;
10839;SDS011;5473;42.706;23.328;2022-12-07T00:14:15;0.50;;;0.50;;
10839;SDS011;5473;42.706;23.328;2022-12-07T00:16:43;0.60;;;0.60;;
10839;SDS011;5473;42.706;23.328;2022-12-07T00:19:11;0.50;;;0.50;;
10839;SDS011;5473;42.706;23.328;2022-12-07T00:21:38;0.60;;;0.60;;
10839;SDS011;5473;42.706;23.328;2022-12-07T00:24:07;0.50;;;0.50;;
10839;SDS011;5473;42.706;23.328;2022-12-07T00:26:35;0.60;;;0.60;;
10839;SDS011;5473;42.706;23.328;2022-12-07T00:29:04;0.53;;;0.53;;
10839;SDS011;5473;42.706;23.328;2022-12-07T00:31:33;0.60;;;0.60;;
10839;SDS011;5473;42.706;23.328;2022-12-07T00:34:03;0.60;;;0.60;;
10839;SDS011;5473;42.706;23.328;2022-12-07T00:36:30;0.50;;;0.50;;
10839;SDS011;5473;42.706;23.328;2022-12-07T00:38:58;0.60;;;0.60;;
10839;SDS011;5473;42.706;23.328;2022-12-07T00:41:27;0.60;;;0.60;;
10839;SDS011;5473;42.706;23.328;2022-12-07T00:43:55;0.50;;;0.50;;
10839;SDS011;5473;42.706;23.328;2022-12-07T00:46:22;0.50;;;0.50;;
10839;SDS011;5473;42.706;23.328;2022-12-07T00:48:50;0.60;;;0.60;;
10839;SDS011;5473;42.706;23.328;2022-12-07T00:51:18;0.67;;;0.67;;
10839;SDS011;5473;42.706;23.328;2022-12-07T00:53:46;0.60;;;0.60;;
10839;SDS011;5473;42.706;23.328;2022-12-07T00:56:14;0.53;;;0.53;;
10839;SDS011;5473;42.706;23.328;2022-12-07T00:58:43;0.60;;;0.60;;
10839;SDS011;5473;42.706;23.328;2022-12-07T01:01:15;0.60;;;0.60;;
10839;SDS011;5473;42.706;23.328;2022-12-07T01:03:42;0.70;;;0.70;;
10839;SDS011;5473;42.706;23.328;2022-12-07T01:06:08;0.70;;;0.70;;
10839;SDS011;5473;42.706;23.328;2022-12-07T01:08:35;0.60;;;0.60;;
10839;SDS011;5473;42.706;23.328;2022-12-07T01:11:03;0.50;;;0.50;;
10839;SDS011;5473;42.706;23.328;2022-12-07T01:13:32;0.60;;;0.60;;
10839;SDS011;5473;42.706;23.328;2022-12-07T01:16:01;0.50;;;0.50;;
10839;SDS011;5473;42.706;23.328;2022-12-07T01:18:30;0.60;;;0.60;;
10839;SDS011;5473;42.706;23.328;2022-12-07T01:20:59;0.60;;;0.60;;
10839;SDS011;5473;42.706;23.328;2022-12-07T01:23:27;0.53;;;0.53;;
10839;SDS011;5473;42.706;23.328;2022-12-07T01:25:55;0.60;;;0.60;;
10839;SDS011;5473;42.706;23.328;2022-12-07T01:28:22;0.60;;;0.60;;
10839;SDS011;5473;42.706;23.328;2022-12-07T01:30:56;0.60;;;0.60;;
10839;SDS011;5473;42.706;23.328;2022-12-07T01:33:29;0.53;;;0.53;;
10839;SDS011;5473;42.706;23.328;2022-12-07T01:36:00;0.63;;;0.63;;
10839;SDS011;5473;42.706;23.328;2022-12-07T01:38:28;0.60;;;0.60;;
10839;SDS011;5473;42.706;23.328;2022-12-07T01:40:55;0.50;;;0.50;;
10839;SDS011;5473;42.706;23.328;2022-12-07T01:43:23;0.50;;;0.50;;
10839;SDS011;5473;42.706;23.328;2022-12-07T01:45:52;0.47;;;0.47;;
10839;SDS011;5473;42.706;23.328;2022-12-07T01:48:21;0.60;;;0.60;;
10839;SDS011;5473;42.706;23.328;2022-12-07T01:50:50;0.60;;;0.60;;
10839;SDS011;5473;42.706;23.328;2022-12-07T01:53:19;0.50;;;0.50;;
10839;SDS011;5473;42.706;23.328;2022-12-07T01:55:51;0.50;;;0.50;;
10839;SDS011;5473;42.706;23.328;2022-12-07T01:58:19;0.60;;;0.60;;
10839;SDS011;5473;42.706;23.328;2022-12-07T02:00:47;0.50;;;0.50;;
10839;SDS011;5473;42.706;23.328;2022-12-07T02:03:15;0.50;;;0.50;;
10839;SDS011;5473;42.706;23.328;2022-12-07T02:05:47;0.60;;;0.60;;
10839;SDS011;5473;42.706;23.328;2022-12-07T02:08:15;0.50;;;0.50;;
10839;SDS011;5473;42.706;23.328;2022-12-07T02:10:43;0.40;;;0.40;;
10839;SDS011;5473;42.706;23.328;2022-12-07T02:13:11;0.60;;;0.60;;
10839;SDS011;5473;42.706;23.328;2022-12-07T02:15:44;0.57;;;0.57;;
10839;SDS011;5473;42.706;23.328;2022-12-07T02:18:29;0.57;;;0.57;;
10839;SDS011;5473;42.706;23.328;2022-12-07T02:21:09;0.50;;;0.50;;
10839;SDS011;5473;42.706;23.328;2022-12-07T02:23:42;0.50;;;0.50;;
10839;SDS011;5473;42.706;23.328;2022-12-07T02:29:36;0.60;;;0.60;;
10839;SDS011;5473;42.706;23.328;2022-12-07T02:32:14;0.50;;;0.50;;
10839;SDS011;5473;42.706;23.328;2022-12-07T02:34:47;0.50;;;0.50;;
10839;SDS011;5473;42.706;23.328;2022-12-07T02:37:19;0.60;;;0.60;;
10839;SDS011;5473;42.706;23.328;2022-12-07T02:39:54;0.60;;;0.60;;
10839;SDS011;5473;42.706;23.328;2022-12-07T02:42:27;0.53;;;0.53;;
10839;SDS011;5473;42.706;23.328;2022-12-07T02:45:01;0.60;;;0.60;;
10839;SDS011;5473;42.706;23.328;2022-12-07T02:47:29;0.50;;;0.50;;
10839;SDS011;5473;42.706;23.328;2022-12-07T02:49:58;0.47;;;0.47;;
10839;SDS011;5473;42.706;23.328;2022-12-07T02:52:25;0.53;;;0.53;;
10839;SDS011;5473;42.706;23.328;2022-12-07T02:54:51;0.60;;;0.60;;
10839;SDS011;5473;42.706;23.328;2022-12-07T02:57:23;0.50;;;0.50;;
10839;SDS011;5473;42.706;23.328;2022-12-07T03:00:07;0.57;;;0.57;;
10839;SDS011;5473;42.706;23.328;2022-12-07T03:02:39;0.50;;;0.50;;
10839;SDS011;5473;42.706;23.328;2022-12-07T03:05:25;0.60;;;0.60;;
10839;SDS011;5473;42.706;23.328;2022-12-07T03:08:19;0.50;;;0.50;;
10839;SDS011;5473;42.706;23.328;2022-12-07T03:10:54;0.50;;;0.50;;
10839;SDS011;5473;42.706;23.328;2022-12-07T03:13:25;0.60;;;0.60;;
10839;SDS011;5473;42.706;23.328;2022-12-07T03:16:00;0.60;;;0.60;;
10839;SDS011;5473;42.706;23.328;2022-12-07T03:18:32;0.57;;;0.57;;
10839;SDS011;5473;42.706;23.328;2022-12-07T03:21:05;0.60;;;0.60;;
10839;SDS011;5473;42.706;23.328;2022-12-07T03:23:36;0.50;;;0.50;;
10839;SDS011;5473;42.706;23.328;2022-12-07T03:26:08;0.60;;;0.60;;
10839;SDS011;5473;42.706;23.328;2022-12-07T03:28:39;0.60;;;0.60;;
10839;SDS011;5473;42.706;23.328;2022-12-07T03:31:13;0.50;;;0.50;;
10839;SDS011;5473;42.706;23.328;2022-12-07T03:33:46;0.57;;;0.57;;
10839;SDS011;5473;42.706;23.328;2022-12-07T03:36:20;0.60;;;0.60;;
10839;SDS011;5473;42.706;23.328;2022-12-07T03:38:53;0.50;;;0.50;;
10839;SDS011;5473;42.706;23.328;2022-12-07T03:41:24;0.50;;;0.50;;
10839;SDS011;5473;42.706;23.328;2022-12-07T03:43:54;0.60;;;0.60;;
10839;SDS011;5473;42.706;23.328;2022-12-07T03:46:26;0.60;;;0.60;;
10839;SDS011;5473;42.706;23.328;2022-12-07T03:48:59;0.57;;;0.57;;
10839;SDS011;5473;42.706;23.328;2022-12-07T03:51:36;0.60;;;0.60;;
10839;SDS011;5473;42.706;23.328;2022-12-07T03:54:08;0.50;;;0.50;;
10839;SDS011;5473;42.706;23.328;2022-12-07T03:56:40;0.60;;;0.60;;
10839;SDS011;5473;42.706;23.328;2022-12-07T03:59:10;0.60;;;0.60;;
10839;SDS011;5473;42.706;23.328;2022-12-07T04:01:42;0.50;;;0.50;;
10839;SDS011;5473;42.706;23.328;2022-12-07T04:04:09;0.57;;;0.57;;
10839;SDS011;5473;42.706;23.328;2022-12-07T04:06:36;0.50;;;0.50;;
10839;SDS011;5473;42.706;23.328;2022-12-07T04:09:03;0.57;;;0.57;;
10839;SDS011;5473;42.706;23.328;2022-12-07T04:11:30;0.50;;;0.50;;
10839;SDS011;5473;42.706;23.328;2022-12-07T04:13:56;0.60;;;0.60;;
10839;SDS011;5473;42.706;23.328;2022-12-07T04:16:42;0.50;;;0.50;;
10839;SDS011;5473;42.706;23.328;2022-12-07T04:19:09;0.50;;;0.50;;
10839;SDS011;5473;42.706;23.328;2022-12-07T04:21:35;0.70;;;0.70;;
10839;SDS011;5473;42.706;23.328;2022-12-07T04:24:02;0.70;;;0.70;;
10839;SDS011;5473;42.706;23.328;2022-12-07T04:26:30;0.60;;;0.60;;
10839;SDS011;5473;42.706;23.328;2022-12-07T04:28:57;0.50;;;0.50;;
10839;SDS011;5473;42.706;23.328;2022-12-07T04:31:23;0.57;;;0.57;;
10839;SDS011;5473;42.706;23.328;2022-12-07T04:33:52;0.60;;;0.60;;
10839;SDS011;5473;42.706;23.328;2022-12-07T04:36:18;0.57;;;0.57;;
10839;SDS011;5473;42.706;23.328;2022-12-07T04:38:45;0.50;;;0.50;;
10839;SDS011;5473;42.706;23.328;2022-12-07T04:41:13;0.50;;;0.50;;
10839;SDS011;5473;42.706;23.328;2022-12-07T04:43:40;0.60;;;0.60;;
10839;SDS011;5473;42.706;23.328;2022-12-07T04:46:07;0.60;;;0.60;;
10839;SDS011;5473;42.706;23.328;2022-12-07T04:48:33;0.60;;;0.60;;
10839;SDS011;5473;42.706;23.328;2022-12-07T04:51:03;0.60;;;0.60;;
10839;SDS011;5473;42.706;23.328;2022-12-07T04:53:30;0.50;;;0.50;;
10839;SDS011;5473;42.706;23.328;2022-12-07T04:55:57;0.60;;;0.60;;
10839;SDS011;5473;42.706;23.328;2022-12-07T04:58:24;0.60;;;0.60;;
10839;SDS011;5473;42.706;23.328;2022-12-07T05:00:53;0.50;;;0.50;;
10839;SDS011;5473;42.706;23.328;2022-12-07T05:03:20;0.60;;;0.60;;
10839;SDS011;5473;42.706;23.328;2022-12-07T05:05:47;0.60;;;0.60;;
10839;SDS011;5473;42.706;23.328;2022-12-07T05:08:15;0.60;;;0.60;;
10839;SDS011;5473;42.706;23.328;2022-12-07T05:10:42;0.60;;;0.60;;
10839;SDS011;5473;42.706;23.328;2022-12-07T05:13:09;0.60;;;0.60;;
10839;SDS011;5473;42.706;23.328;2022-12-07T05:15:36;0.60;;;0.60;;
10839;SDS011;5473;42.706;23.328;2022-12-07T05:18:02;0.50;;;0.50;;
10839;SDS011;5473;42.706;23.328;2022-12-07T05:20:29;0.60;;;0.60;;
10839;SDS011;5473;42.706;23.328;2022-12-07T05:22:56;0.70;;;0.70;;
10839;SDS011;5473;42.706;23.328;2022-12-07T05:25:25;0.60;;;0.60;;
10839;SDS011;5473;42.706;23.328;2022-12-07T05:27:52;0.60;;;0.60;;
10839;SDS011;5473;42.706;23.328;2022-12-07T05:30:18;0.57;;;0.57;;
10839;SDS011;5473;42.706;23.328;2022-12-07T05:32:45;0.53;;;0.53;;
10839;SDS011;5473;42.706;23.328;2022-12-07T05:35:12;0.67;;;0.67;;
10839;SDS011;5473;42.706;23.328;2022-12-07T05:37:39;0.50;;;0.50;;
10839;SDS011;5473;42.706;23.328;2022-12-07T05:40:06;0.50;;;0.50;;
10839;SDS011;5473;42.706;23.328;2022-12-07T05:42:35;0.60;;;0.60;;
10839;SDS011;5473;42.706;23.328;2022-12-07T05:45:02;0.60;;;0.60;;
10839;SDS011;5473;42.706;23.328;2022-12-07T05:47:29;0.60;;;0.60;;
10839;SDS011;5473;42.706;23.328;2022-12-07T05:49:56;0.60;;;0.60;;
10839;SDS011;5473;42.706;23.328;2022-12-07T05:52:23;0.57;;;0.57;;
10839;SDS011;5473;42.706;23.328;2022-12-07T05:54:51;0.60;;;0.60;;
10839;SDS011;5473;42.706;23.328;2022-12-07T05:57:18;0.50;;;0.50;;
10839;SDS011;5473;42.706;23.328;2022-12-07T05:59:46;0.70;;;0.70;;
10839;SDS011;5473;42.706;23.328;2022-12-07T06:02:12;0.57;;;0.57;;
10839;SDS011;5473;42.706;23.328;2022-12-07T06:04:41;0.53;;;0.53;;
10839;SDS011;5473;42.706;23.328;2022-12-07T06:07:09;0.60;;;0.60;;
10839;SDS011;5473;42.706;23.328;2022-12-07T06:09:37;0.57;;;0.57;;
10839;SDS011;5473;42.706;23.328;2022-12-07T06:12:04;0.60;;;0.60;;
10839;SDS011;5473;42.706;23.328;2022-12-07T06:14:51;0.67;;;0.67;;
10839;SDS011;5473;42.706;23.328;2022-12-07T06:17:17;0.57;;;0.57;;
10839;SDS011;5473;42.706;23.328;2022-12-07T06:19:44;0.60;;;0.60;;
10839;SDS011;5473;42.706;23.328;2022-12-07T06:22:11;0.60;;;0.60;;
10839;SDS011;5473;42.706;23.328;2022-12-07T06:24:38;0.50;;;0.50;;
10839;SDS011;5473;42.706;23.328;2022-12-07T06:27:06;0.50;;;0.50;;
10839;SDS011;5473;42.706;23.328;2022-12-07T06:29:33;0.60;;;0.60;;
10839;SDS011;5473;42.706;23.328;2022-12-07T06:32:01;0.70;;;0.70;;
10839;SDS011;5473;42.706;23.328;2022-12-07T06:34:28;0.60;;;0.60;;
10839;SDS011;5473;42.706;23.328;2022-12-07T06:36:55;0.43;;;0.43;;
10839;SDS011;5473;42.706;23.328;2022-12-07T06:39:22;0.53;;;0.53;;
10839;SDS011;5473;42.706;23.328;2022-12-07T06:41:50;0.60;;;0.60;;
10839;SDS011;5473;42.706;23.328;2022-12-07T06:44:19;0.50;;;0.50;;
10839;SDS011;5473;42.706;23.328;2022-12-07T06:46:46;0.50;;;0.50;;
10839;SDS011;5473;42.706;23.328;2022-12-07T06:49:15;0.60;;;0.60;;
10839;SDS011;5473;42.706;23.328;2022-12-07T06:51:42;0.60;;;0.60;;
10839;SDS011;5473;42.706;23.328;2022-12-07T06:54:09;0.60;;;0.60;;
10839;SDS011;5473;42.706;23.328;2022-12-07T06:56:37;0.60;;;0.60;;
10839;SDS011;5473;42.706;23.328;2022-12-07T06:59:04;0.60;;;0.60;;
10839;SDS011;5473;42.706;23.328;2022-12-07T07:01:32;0.60;;;0.60;;
10839;SDS011;5473;42.706;23.328;2022-12-07T07:03:59;0.60;;;0.60;;
10839;SDS011;5473;42.706;23.328;2022-12-07T07:06:28;0.60;;;0.60;;
10839;SDS011;5473;42.706;23.328;2022-12-07T07:08:54;0.60;;;0.60;;
10839;SDS011;5473;42.706;23.328;2022-12-07T07:11:21;0.60;;;0.60;;
10839;SDS011;5473;42.706;23.328;2022-12-07T07:13:48;0.50;;;0.50;;
10839;SDS011;5473;42.706;23.328;2022-12-07T07:16:14;0.57;;;0.57;;
10839;SDS011;5473;42.706;23.328;2022-12-07T07:18:41;0.53;;;0.53;;
10839;SDS011;5473;42.706;23.328;2022-12-07T07:21:08;0.60;;;0.60;;
10839;SDS011;5473;42.706;23.328;2022-12-07T07:23:36;0.60;;;0.60;;
10839;SDS011;5473;42.706;23.328;2022-12-07T07:26:03;0.60;;;0.60;;
10839;SDS011;5473;42.706;23.328;2022-12-07T07:28:30;0.43;;;0.43;;
10839;SDS011;5473;42.706;23.328;2022-12-07T07:30:57;0.60;;;0.60;;
10839;SDS011;5473;42.706;23.328;2022-12-07T07:33:23;0.50;;;0.50;;
10839;SDS011;5473;42.706;23.328;2022-12-07T07:35:50;0.50;;;0.50;;
10839;SDS011;5473;42.706;23.328;2022-12-07T07:38:17;0.60;;;0.60;;
10839;SDS011;5473;42.706;23.328;2022-12-07T07:40:45;0.53;;;0.53;;
10839;SDS011;5473;42.706;23.328;2022-12-07T07:43:12;0.60;;;0.60;;
10839;SDS011;5473;42.706;23.328;2022-12-07T07:45:38;0.60;;;0.60;;
10839;SDS011;5473;42.706;23.328;2022-12-07T07:48:05;0.60;;;0.60;;
10839;SDS011;5473;42.706;23.328;2022-12-07T07:50:32;0.50;;;0.50;;
10839;SDS011;5473;42.706;23.328;2022-12-07T07:52:59;0.53;;;0.53;;
10839;SDS011;5473;42.706;23.328;2022-12-07T07:55:25;0.50;;;0.50;;
10839;SDS011;5473;42.706;23.328;2022-12-07T07:57:54;0.50;;;0.50;;
10839;SDS011;5473;42.706;23.328;2022-12-07T08:00:21;0.60;;;0.60;;
10839;SDS011;5473;42.706;23.328;2022-12-07T08:02:48;0.30;;;0.30;;
10839;SDS011;5473;42.706;23.328;2022-12-07T08:05:15;0.40;;;0.40;;
10839;SDS011;5473;42.706;23.328;2022-12-07T08:07:42;0.50;;;0.50;;
10839;SDS011;5473;42.706;23.328;2022-12-07T08:10:10;0.50;;;0.50;;
10839;SDS011;5473;42.706;23.328;2022-12-07T08:12:38;0.50;;;0.50;;
10839;SDS011;5473;42.706;23.328;2022-12-07T08:15:28;0.50;;;0.50;;
10839;SDS011;5473;42.706;23.328;2022-12-07T08:17:56;0.60;;;0.60;;
10839;SDS011;5473;42.706;23.328;2022-12-07T08:20:23;0.40;;;0.40;;
10839;SDS011;5473;42.706;23.328;2022-12-07T08:22:50;0.50;;;0.50;;
10839;SDS011;5473;42.706;23.328;2022-12-07T08:25:17;0.50;;;0.50;;
10839;SDS011;5473;42.706;23.328;2022-12-07T08:27:44;0.60;;;0.60;;
10839;SDS011;5473;42.706;23.328;2022-12-07T08:30:11;0.50;;;0.50;;
10839;SDS011;5473;42.706;23.328;2022-12-07T08:32:39;0.50;;;0.50;;
10839;SDS011;5473;42.706;23.328;2022-12-07T08:35:07;0.50;;;0.50;;
10839;SDS011;5473;42.706;23.328;2022-12-07T08:37:34;0.50;;;0.50;;
10839;SDS011;5473;42.706;23.328;2022-12-07T08:40:01;0.60;;;0.60;;
10839;SDS011;5473;42.706;23.328;2022-12-07T08:42:29;0.60;;;0.60;;
10839;SDS011;5473;42.706;23.328;2022-12-07T08:45:03;0.60;;;0.60;;
10839;SDS011;5473;42.706;23.328;2022-12-07T08:47:30;0.43;;;0.43;;
10839;SDS011;5473;42.706;23.328;2022-12-07T08:49:59;0.60;;;0.60;;
10839;SDS011;5473;42.706;23.328;2022-12-07T08:52:28;0.50;;;0.50;;
10839;SDS011;5473;42.706;23.328;2022-12-07T08:54:56;0.60;;;0.60;;
10839;SDS011;5473;42.706;23.328;2022-12-07T08:57:23;0.60;;;0.60;;
10839;SDS011;5473;42.706;23.328;2022-12-07T08:59:50;0.50;;;0.50;;
10839;SDS011;5473;42.706;23.328;2022-12-07T09:02:17;0.60;;;0.60;;
10839;SDS011;5473;42.706;23.328;2022-12-07T09:04:44;0.57;;;0.57;;
10839;SDS011;5473;42.706;23.328;2022-12-07T09:07:12;0.60;;;0.60;;
10839;SDS011;5473;42.706;23.328;2022-12-07T09:09:39;0.40;;;0.40;;
10839;SDS011;5473;42.706;23.328;2022-12-07T09:12:06;0.30;;;0.30;;
10839;SDS011;5473;42.706;23.328;2022-12-07T09:14:33;0.30;;;0.30;;
10839;SDS011;5473;42.706;23.328;2022-12-07T09:17:04;0.30;;;0.30;;
10839;SDS011;5473;42.706;23.328;2022-12-07T09:19:33;0.20;;;0.20;;
10839;SDS011;5473;42.706;23.328;2022-12-07T09:21:59;0.30;;;0.30;;
10839;SDS011;5473;42.706;23.328;2022-12-07T09:24:28;0.20;;;0.20;;
10839;SDS011;5473;42.706;23.328;2022-12-07T09:26:55;0.30;;;0.30;;
10839;SDS011;5473;42.706;23.328;2022-12-07T09:29:21;0.30;;;0.30;;
10839;SDS011;5473;42.706;23.328;2022-12-07T09:31:48;0.33;;;0.33;;
10839;SDS011;5473;42.706;23.328;2022-12-07T09:34:15;0.37;;;0.37;;
10839;SDS011;5473;42.706;23.328;2022-12-07T09:36:42;0.40;;;0.40;;
10839;SDS011;5473;42.706;23.328;2022-12-07T09:39:09;0.40;;;0.40;;
10839;SDS011;5473;42.706;23.328;2022-12-07T09:41:38;0.30;;;0.30;;
10839;SDS011;5473;42.706;23.328;2022-12-07T09:44:09;0.50;;;0.50;;
10839;SDS011;5473;42.706;23.328;2022-12-07T09:46:38;0.50;;;0.50;;
10839;SDS011;5473;42.706;23.328;2022-12-07T09:49:08;0.40;;;0.40;;
10839;SDS011;5473;42.706;23.328;2022-12-07T09:51:38;0.50;;;0.50;;
10839;SDS011;5473;42.706;23.328;2022-12-07T09:54:05;0.40;;;0.40;;
10839;SDS011;5473;42.706;23.328;2022-12-07T09:56:31;0.40;;;0.40;;
10839;SDS011;5473;42.706;23.328;2022-12-07T09:59:00;0.30;;;0.30;;
10839;SDS011;5473;42.706;23.328;2022-12-07T10:01:29;0.50;;;0.50;;
10839;SDS011;5473;42.706;23.328;2022-12-07T10:03:59;0.40;;;0.40;;
10839;SDS011;5473;42.706;23.328;2022-12-07T10:06:35;0.40;;;0.40;;
10839;SDS011;5473;42.706;23.328;2022-12-07T10:09:07;0.30;;;0.30;;
10839;SDS011;5473;42.706;23.328;2022-12-07T10:14:33;0.40;;;0.40;;
10839;SDS011;5473;42.706;23.328;2022-12-07T10:17:01;0.40;;;0.40;;
10839;SDS011;5473;42.706;23.328;2022-12-07T10:19:29;0.30;;;0.30;;
10839;SDS011;5473;42.706;23.328;2022-12-07T10:22:09;0.30;;;0.30;;
10839;SDS011;5473;42.706;23.328;2022-12-07T10:24:37;0.30;;;0.30;;
10839;SDS011;5473;42.706;23.328;2022-12-07T10:27:11;0.50;;;0.50;;
10839;SDS011;5473;42.706;23.328;2022-12-07T10:29:48;0.43;;;0.43;;
10839;SDS011;5473;42.706;23.328;2022-12-07T10:32:30;0.50;;;0.50;;
10839;SDS011;5473;42.706;23.328;2022-12-07T10:35:18;0.30;;;0.30;;
10839;SDS011;5473;42.706;23.328;2022-12-07T10:37:47;0.50;;;0.50;;
10839;SDS011;5473;42.706;23.328;2022-12-07T10:40:28;0.33;;;0.33;;
10839;SDS011;5473;42.706;23.328;2022-12-07T10:43:02;0.40;;;0.40;;
10839;SDS011;5473;42.706;23.328;2022-12-07T10:45:31;0.40;;;0.40;;
10839;SDS011;5473;42.706;23.328;2022-12-07T10:48:01;0.40;;;0.40;;
10839;SDS011;5473;42.706;23.328;2022-12-07T10:50:40;0.47;;;0.47;;
10839;SDS011;5473;42.706;23.328;2022-12-07T10:53:44;0.40;;;0.40;;
10839;SDS011;5473;42.706;23.328;2022-12-07T10:56:22;0.30;;;0.30;;
10839;SDS011;5473;42.706;23.328;2022-12-07T10:59:02;0.40;;;0.40;;
10839;SDS011;5473;42.706;23.328;2022-12-07T11:01:48;0.50;;;0.50;;
10839;SDS011;5473;42.706;23.328;2022-12-07T11:04:22;0.40;;;0.40;;
10839;SDS011;5473;42.706;23.328;2022-12-07T11:06:57;0.40;;;0.40;;
10839;SDS011;5473;42.706;23.328;2022-12-07T11:09:33;0.33;;;0.33;;
10839;SDS011;5473;42.706;23.328;2022-12-07T11:12:20;0.40;;;0.40;;
10839;SDS011;5473;42.706;23.328;2022-12-07T11:14:56;0.50;;;0.50;;
10839;SDS011;5473;42.706;23.328;2022-12-07T11:17:31;0.30;;;0.30;;
10839;SDS011;5473;42.706;23.328;2022-12-07T11:20:05;0.30;;;0.30;;
10839;SDS011;5473;42.706;23.328;2022-12-07T11:22:43;0.30;;;0.30;;
10839;SDS011;5473;42.706;23.328;2022-12-07T11:25:17;0.40;;;0.40;;
10839;SDS011;5473;42.706;23.328;2022-12-07T11:27:54;0.30;;;0.30;;
10839;SDS011;5473;42.706;23.328;2022-12-07T11:30:37;0.30;;;0.30;;
10839;SDS011;5473;42.706;23.328;2022-12-07T11:33:17;0.30;;;0.30;;
10839;SDS011;5473;42.706;23.328;2022-12-07T11:35:54;0.30;;;0.30;;
10839;SDS011;5473;42.706;23.328;2022-12-07T11:38:30;0.30;;;0.30;;
10839;SDS011;5473;42.706;23.328;2022-12-07T11:41:05;0.30;;;0.30;;
10839;SDS011;5473;42.706;23.328;2022-12-07T11:43:55;0.30;;;0.30;;
10839;SDS011;5473;42.706;23.328;2022-12-07T11:46:26;0.30;;;0.30;;
10839;SDS011;5473;42.706;23.328;2022-12-07T11:49:04;0.20;;;0.20;;
10839;SDS011;5473;42.706;23.328;2022-12-07T11:51:38;0.10;;;0.10;;
10839;SDS011;5473;42.706;23.328;2022-12-07T11:54:11;0.10;;;0.10;;
10839;SDS011;5473;42.706;23.328;2022-12-07T11:56:41;0.10;;;0.10;;
10839;SDS011;5473;42.706;23.328;2022-12-07T11:59:11;0.10;;;0.10;;
10839;SDS011;5473;42.706;23.328;2022-12-07T12:01:47;0.10;;;0.10;;
10839;SDS011;5473;42.706;23.328;2022-12-07T12:04:25;0.10;;;0.10;;
10839;SDS011;5473;42.706;23.328;2022-12-07T12:06:57;0.17;;;0.17;;
10839;SDS011;5473;42.706;23.328;2022-12-07T12:09:25;0.20;;;0.20;;
10839;SDS011;5473;42.706;23.328;2022-12-07T12:15:03;0.20;;;0.20;;
10839;SDS011;5473;42.706;23.328;2022-12-07T12:20:39;0.30;;;0.30;;
10839;SDS011;5473;42.706;23.328;2022-12-07T12:23:10;0.30;;;0.30;;
10839;SDS011;5473;42.706;23.328;2022-12-07T12:25:41;0.30;;;0.30;;
10839;SDS011;5473;42.706;23.328;2022-12-07T12:28:19;0.40;;;0.40;;
10839;SDS011;5473;42.706;23.328;2022-12-07T12:31:04;0.30;;;0.30;;
10839;SDS011;5473;42.706;23.328;2022-12-07T12:33:32;0.40;;;0.40;;
10839;SDS011;5473;42.706;23.328;2022-12-07T12:36:24;0.40;;;0.40;;
10839;SDS011;5473;42.706;23.328;2022-12-07T12:39:07;0.40;;;0.40;;
10839;SDS011;5473;42.706;23.328;2022-12-07T12:45:04;0.40;;;0.40;;
10839;SDS011;5473;42.706;23.328;2022-12-07T12:47:53;0.37;;;0.37;;
10839;SDS011;5473;42.706;23.328;2022-12-07T12:53:42;0.30;;;0.30;;
10839;SDS011;5473;42.706;23.328;2022-12-07T13:04:49;0.40;;;0.40;;
10839;SDS011;5473;42.706;23.328;2022-12-07T13:10:32;0.40;;;0.40;;
10839;SDS011;5473;42.706;23.328;2022-12-07T13:13:21;0.40;;;0.40;;
10839;SDS011;5473;42.706;23.328;2022-12-07T13:18:56;0.30;;;0.30;;
10839;SDS011;5473;42.706;23.328;2022-12-07T13:21:41;0.30;;;0.30;;
10839;SDS011;5473;42.706;23.328;2022-12-07T13:24:08;0.40;;;0.40;;
10839;SDS011;5473;42.706;23.328;2022-12-07T13:26:41;0.30;;;0.30;;
10839;SDS011;5473;42.706;23.328;2022-12-07T13:29:11;0.40;;;0.40;;
10839;SDS011;5473;42.706;23.328;2022-12-07T13:31:40;0.33;;;0.33;;
10839;SDS011;5473;42.706;23.328;2022-12-07T13:36:56;0.50;;;0.50;;
10839;SDS011;5473;42.706;23.328;2022-12-07T13:39:25;0.40;;;0.40;;
10839;SDS011;5473;42.706;23.328;2022-12-07T13:41:55;0.50;;;0.50;;
10839;SDS011;5473;42.706;23.328;2022-12-07T13:44:24;0.40;;;0.40;;
10839;SDS011;5473;42.706;23.328;2022-12-07T13:46:53;0.30;;;0.30;;
10839;SDS011;5473;42.706;23.328;2022-12-07T13:49:27;0.30;;;0.30;;
10839;SDS011;5473;42.706;23.328;2022-12-07T13:51:56;0.40;;;0.40;;
10839;SDS011;5473;42.706;23.328;2022-12-07T13:54:43;0.40;;;0.40;;
10839;SDS011;5473;42.706;23.328;2022-12-07T13:57:11;0.30;;;0.30;;
10839;SDS011;5473;42.706;23.328;2022-12-07T13:59:38;0.30;;;0.30;;
10839;SDS011;5473;42.706;23.328;2022-12-07T14:02:16;0.40;;;0.40;;
10839;SDS011;5473;42.706;23.328;2022-12-07T14:04:46;0.40;;;0.40;;
10839;SDS011;5473;42.706;23.328;2022-12-07T14:07:19;0.40;;;0.40;;
10839;SDS011;5473;42.706;23.328;2022-12-07T14:09:55;0.40;;;0.40;;
10839;SDS011;5473;42.706;23.328;2022-12-07T14:12:25;0.33;;;0.33;;
10839;SDS011;5473;42.706;23.328;2022-12-07T14:14:53;0.30;;;0.30;;
10839;SDS011;5473;42.706;23.328;2022-12-07T14:17:21;0.40;;;0.40;;
10839;SDS011;5473;42.706;23.328;2022-12-07T14:19:50;0.40;;;0.40;;
10839;SDS011;5473;42.706;23.328;2022-12-07T14:22:30;0.40;;;0.40;;
10839;SDS011;5473;42.706;23.328;2022-12-07T14:25:11;0.40;;;0.40;;
10839;SDS011;5473;42.706;23.328;2022-12-07T14:27:49;0.40;;;0.40;;
10839;SDS011;5473;42.706;23.328;2022-12-07T14:30:20;0.40;;;0.40;;
10839;SDS011;5473;42.706;23.328;2022-12-07T14:32:49;0.50;;;0.50;;
10839;SDS011;5473;42.706;23.328;2022-12-07T14:35:19;0.40;;;0.40;;
10839;SDS011;5473;42.706;23.328;2022-12-07T14:37:47;0.50;;;0.50;;
10839;SDS011;5473;42.706;23.328;2022-12-07T14:40:16;0.50;;;0.50;;
10839;SDS011;5473;42.706;23.328;2022-12-07T14:42:45;0.50;;;0.50;;
10839;SDS011;5473;42.706;23.328;2022-12-07T14:45:16;0.50;;;0.50;;
10839;SDS011;5473;42.706;23.328;2022-12-07T14:47:44;0.40;;;0.40;;
10839;SDS011;5473;42.706;23.328;2022-12-07T14:50:12;0.50;;;0.50;;
10839;SDS011;5473;42.706;23.328;2022-12-07T14:52:39;0.50;;;0.50;;
10839;SDS011;5473;42.706;23.328;2022-12-07T14:55:12;0.40;;;0.40;;
10839;SDS011;5473;42.706;23.328;2022-12-07T14:57:40;0.40;;;0.40;;
10839;SDS011;5473;42.706;23.328;2022-12-07T15:00:08;0.60;;;0.60;;
10839;SDS011;5473;42.706;23.328;2022-12-07T15:02:40;0.50;;;0.50;;
10839;SDS011;5473;42.706;23.328;2022-12-07T15:05:07;0.50;;;0.50;;
10839;SDS011;5473;42.706;23.328;2022-12-07T15:07:34;0.50;;;0.50;;
10839;SDS011;5473;42.706;23.328;2022-12-07T15:10:01;0.50;;;0.50;;
10839;SDS011;5473;42.706;23.328;2022-12-07T15:12:29;0.57;;;0.57;;
10839;SDS011;5473;42.706;23.328;2022-12-07T15:14:55;0.40;;;0.40;;
10839;SDS011;5473;42.706;23.328;2022-12-07T15:17:22;0.50;;;0.50;;
10839;SDS011;5473;42.706;23.328;2022-12-07T15:19:50;0.60;;;0.60;;
10839;SDS011;5473;42.706;23.328;2022-12-07T15:22:17;0.50;;;0.50;;
10839;SDS011;5473;42.706;23.328;2022-12-07T15:24:44;0.50;;;0.50;;
10839;SDS011;5473;42.706;23.328;2022-12-07T15:27:13;0.50;;;0.50;;
10839;SDS011;5473;42.706;23.328;2022-12-07T15:29:41;0.53;;;0.53;;
10839;SDS011;5473;42.706;23.328;2022-12-07T15:32:08;0.50;;;0.50;;
10839;SDS011;5473;42.706;23.328;2022-12-07T15:34:35;0.43;;;0.43;;
10839;SDS011;5473;42.706;23.328;2022-12-07T15:37:03;0.50;;;0.50;;
10839;SDS011;5473;42.706;23.328;2022-12-07T15:39:30;0.50;;;0.50;;
10839;SDS011;5473;42.706;23.328;2022-12-07T15:41:57;0.57;;;0.57;;
10839;SDS011;5473;42.706;23.328;2022-12-07T15:44:24;0.50;;;0.50;;